sensor_id;sensor_type;location;lat;lon;timestamp;P1;durP1;ratioP1;P2;durP2;ratioP2
16832;SDS011;8533;48.426;10.868;2023-07-13T00:01:36;9.47;;;4.67;;
16832;SDS011;8533;48.426;10.868;2023-07-13T00:04:03;7.20;;;4.80;;
16832;SDS011;8533;48.426;10.868;2023-07-13T00:06:29;8.17;;;5.13;;
16832;SDS011;8533;48.426;10.868;2023-07-13T00:08:57;9.90;;;5.47;;
16832;SDS011;8533;48.426;10.868;2023-07-13T00:11:23;5.33;;;4.30;;
16832;SDS011;8533;48.426;10.868;2023-07-13T00:13:48;10.60;;;5.30;;
16832;SDS011;8533;48.426;10.868;2023-07-13T00:16:13;8.33;;;5.13;;
16832;SDS011;8533;48.426;10.868;2023-07-13T00:18:39;7.77;;;5.17;;
16832;SDS011;8533;48.426;10.868;2023-07-13T00:21:05;9.87;;;5.63;;
16832;SDS011;8533;48.426;10.868;2023-07-13T00:23:37;6.73;;;5.23;;
16832;SDS011;8533;48.426;10.868;2023-07-13T00:26:04;7.00;;;5.17;;
16832;SDS011;8533;48.426;10.868;2023-07-13T00:28:31;7.97;;;5.57;;
16832;SDS011;8533;48.426;10.868;2023-07-13T00:30:57;8.10;;;5.23;;
16832;SDS011;8533;48.426;10.868;2023-07-13T00:33:22;9.83;;;5.57;;
16832;SDS011;8533;48.426;10.868;2023-07-13T00:35:48;9.23;;;5.43;;
16832;SDS011;8533;48.426;10.868;2023-07-13T00:38:14;9.90;;;6.13;;
16832;SDS011;8533;48.426;10.868;2023-07-13T00:40:39;7.23;;;5.30;;
16832;SDS011;8533;48.426;10.868;2023-07-13T00:43:09;10.83;;;5.60;;
16832;SDS011;8533;48.426;10.868;2023-07-13T00:48:10;8.00;;;5.53;;
16832;SDS011;8533;48.426;10.868;2023-07-13T00:50:36;9.27;;;6.13;;
16832;SDS011;8533;48.426;10.868;2023-07-13T00:53:03;8.60;;;5.90;;
16832;SDS011;8533;48.426;10.868;2023-07-13T00:55:28;11.30;;;6.03;;
16832;SDS011;8533;48.426;10.868;2023-07-13T00:57:54;9.17;;;6.30;;
16832;SDS011;8533;48.426;10.868;2023-07-13T01:00:20;11.27;;;6.60;;
16832;SDS011;8533;48.426;10.868;2023-07-13T01:02:48;10.60;;;7.20;;
16832;SDS011;8533;48.426;10.868;2023-07-13T01:05:15;13.73;;;6.70;;
16832;SDS011;8533;48.426;10.868;2023-07-13T01:07:43;11.20;;;7.03;;
16832;SDS011;8533;48.426;10.868;2023-07-13T01:10:10;12.83;;;6.60;;
16832;SDS011;8533;48.426;10.868;2023-07-13T01:12:37;12.80;;;7.50;;
16832;SDS011;8533;48.426;10.868;2023-07-13T01:15:03;10.73;;;7.27;;
16832;SDS011;8533;48.426;10.868;2023-07-13T01:17:29;14.90;;;7.67;;
16832;SDS011;8533;48.426;10.868;2023-07-13T01:19:56;13.50;;;6.67;;
16832;SDS011;8533;48.426;10.868;2023-07-13T01:22:21;9.20;;;6.90;;
16832;SDS011;8533;48.426;10.868;2023-07-13T01:24:50;11.40;;;6.60;;
16832;SDS011;8533;48.426;10.868;2023-07-13T01:27:19;11.27;;;6.87;;
16832;SDS011;8533;48.426;10.868;2023-07-13T01:29:46;12.13;;;6.80;;
16832;SDS011;8533;48.426;10.868;2023-07-13T01:32:16;12.37;;;7.07;;
16832;SDS011;8533;48.426;10.868;2023-07-13T01:34:49;14.67;;;7.70;;
16832;SDS011;8533;48.426;10.868;2023-07-13T01:37:16;12.10;;;7.57;;
16832;SDS011;8533;48.426;10.868;2023-07-13T01:39:42;11.83;;;7.30;;
16832;SDS011;8533;48.426;10.868;2023-07-13T01:42:07;9.73;;;7.40;;
16832;SDS011;8533;48.426;10.868;2023-07-13T01:44:33;14.47;;;6.83;;
16832;SDS011;8533;48.426;10.868;2023-07-13T01:46:58;11.40;;;7.40;;
16832;SDS011;8533;48.426;10.868;2023-07-13T01:49:23;10.43;;;7.23;;
16832;SDS011;8533;48.426;10.868;2023-07-13T01:51:48;12.40;;;7.33;;
16832;SDS011;8533;48.426;10.868;2023-07-13T01:54:14;12.10;;;7.83;;
16832;SDS011;8533;48.426;10.868;2023-07-13T01:56:39;12.27;;;8.13;;
16832;SDS011;8533;48.426;10.868;2023-07-13T01:59:06;10.27;;;6.90;;
16832;SDS011;8533;48.426;10.868;2023-07-13T02:01:32;13.73;;;7.30;;
16832;SDS011;8533;48.426;10.868;2023-07-13T02:03:57;14.43;;;7.40;;
16832;SDS011;8533;48.426;10.868;2023-07-13T02:06:23;12.93;;;8.07;;
16832;SDS011;8533;48.426;10.868;2023-07-13T02:08:48;11.13;;;7.53;;
16832;SDS011;8533;48.426;10.868;2023-07-13T02:11:14;12.70;;;7.80;;
16832;SDS011;8533;48.426;10.868;2023-07-13T02:13:39;13.03;;;8.17;;
16832;SDS011;8533;48.426;10.868;2023-07-13T02:16:04;14.10;;;8.03;;
16832;SDS011;8533;48.426;10.868;2023-07-13T02:18:31;12.90;;;7.83;;
16832;SDS011;8533;48.426;10.868;2023-07-13T02:20:56;18.17;;;8.37;;
16832;SDS011;8533;48.426;10.868;2023-07-13T02:23:22;15.67;;;8.47;;
16832;SDS011;8533;48.426;10.868;2023-07-13T02:25:47;11.50;;;7.27;;
16832;SDS011;8533;48.426;10.868;2023-07-13T02:28:12;18.13;;;7.20;;
16832;SDS011;8533;48.426;10.868;2023-07-13T02:30:37;9.43;;;6.70;;
16832;SDS011;8533;48.426;10.868;2023-07-13T02:33:03;12.37;;;6.87;;
16832;SDS011;8533;48.426;10.868;2023-07-13T02:35:29;18.23;;;6.90;;
16832;SDS011;8533;48.426;10.868;2023-07-13T02:37:54;10.00;;;6.60;;
16832;SDS011;8533;48.426;10.868;2023-07-13T02:40:20;8.87;;;6.23;;
16832;SDS011;8533;48.426;10.868;2023-07-13T02:42:45;9.40;;;5.97;;
16832;SDS011;8533;48.426;10.868;2023-07-13T02:45:10;12.93;;;6.67;;
16832;SDS011;8533;48.426;10.868;2023-07-13T02:47:39;9.90;;;6.40;;
16832;SDS011;8533;48.426;10.868;2023-07-13T02:50:06;12.37;;;7.10;;
16832;SDS011;8533;48.426;10.868;2023-07-13T02:52:31;14.20;;;6.50;;
16832;SDS011;8533;48.426;10.868;2023-07-13T02:54:57;9.27;;;6.03;;
16832;SDS011;8533;48.426;10.868;2023-07-13T02:57:22;10.77;;;6.23;;
16832;SDS011;8533;48.426;10.868;2023-07-13T02:59:47;11.67;;;6.10;;
16832;SDS011;8533;48.426;10.868;2023-07-13T03:02:13;9.67;;;5.70;;
16832;SDS011;8533;48.426;10.868;2023-07-13T03:04:38;9.40;;;6.13;;
16832;SDS011;8533;48.426;10.868;2023-07-13T03:07:06;16.37;;;5.70;;
16832;SDS011;8533;48.426;10.868;2023-07-13T03:09:32;13.77;;;6.60;;
16832;SDS011;8533;48.426;10.868;2023-07-13T03:11:59;10.30;;;5.73;;
16832;SDS011;8533;48.426;10.868;2023-07-13T03:14:24;15.80;;;6.67;;
16832;SDS011;8533;48.426;10.868;2023-07-13T03:16:50;9.07;;;6.23;;
16832;SDS011;8533;48.426;10.868;2023-07-13T03:19:16;12.63;;;6.97;;
16832;SDS011;8533;48.426;10.868;2023-07-13T03:21:42;8.47;;;6.50;;
16832;SDS011;8533;48.426;10.868;2023-07-13T03:24:07;11.80;;;6.50;;
16832;SDS011;8533;48.426;10.868;2023-07-13T03:26:32;9.83;;;5.97;;
16832;SDS011;8533;48.426;10.868;2023-07-13T03:28:58;11.07;;;5.90;;
16832;SDS011;8533;48.426;10.868;2023-07-13T03:31:27;11.00;;;5.70;;
16832;SDS011;8533;48.426;10.868;2023-07-13T03:33:54;13.27;;;5.93;;
16832;SDS011;8533;48.426;10.868;2023-07-13T03:36:25;10.87;;;6.03;;
16832;SDS011;8533;48.426;10.868;2023-07-13T03:38:54;7.47;;;5.30;;
16832;SDS011;8533;48.426;10.868;2023-07-13T03:41:23;11.60;;;6.00;;
16832;SDS011;8533;48.426;10.868;2023-07-13T03:43:50;12.10;;;5.60;;
16832;SDS011;8533;48.426;10.868;2023-07-13T03:46:16;7.63;;;5.40;;
16832;SDS011;8533;48.426;10.868;2023-07-13T03:48:43;7.37;;;5.07;;
16832;SDS011;8533;48.426;10.868;2023-07-13T03:51:10;9.63;;;6.10;;
16832;SDS011;8533;48.426;10.868;2023-07-13T03:53:38;7.93;;;5.63;;
16832;SDS011;8533;48.426;10.868;2023-07-13T03:56:05;7.90;;;5.27;;
16832;SDS011;8533;48.426;10.868;2023-07-13T03:58:32;7.53;;;4.93;;
16832;SDS011;8533;48.426;10.868;2023-07-13T04:00:59;9.80;;;5.60;;
16832;SDS011;8533;48.426;10.868;2023-07-13T04:03:25;7.57;;;5.23;;
16832;SDS011;8533;48.426;10.868;2023-07-13T04:05:52;9.20;;;5.10;;
16832;SDS011;8533;48.426;10.868;2023-07-13T04:08:18;9.77;;;5.13;;
16832;SDS011;8533;48.426;10.868;2023-07-13T04:10:44;8.40;;;4.63;;
16832;SDS011;8533;48.426;10.868;2023-07-13T04:13:09;8.70;;;4.50;;
16832;SDS011;8533;48.426;10.868;2023-07-13T04:15:34;9.83;;;4.90;;
16832;SDS011;8533;48.426;10.868;2023-07-13T04:17:59;7.83;;;4.40;;
16832;SDS011;8533;48.426;10.868;2023-07-13T04:20:25;7.80;;;4.40;;
16832;SDS011;8533;48.426;10.868;2023-07-13T04:22:51;10.63;;;5.37;;
16832;SDS011;8533;48.426;10.868;2023-07-13T04:25:18;8.13;;;4.27;;
16832;SDS011;8533;48.426;10.868;2023-07-13T04:27:44;6.63;;;4.63;;
16832;SDS011;8533;48.426;10.868;2023-07-13T04:30:09;9.97;;;4.60;;
16832;SDS011;8533;48.426;10.868;2023-07-13T04:32:34;9.47;;;4.53;;
16832;SDS011;8533;48.426;10.868;2023-07-13T04:35:00;9.53;;;5.37;;
16832;SDS011;8533;48.426;10.868;2023-07-13T04:37:25;10.73;;;4.50;;
16832;SDS011;8533;48.426;10.868;2023-07-13T04:39:51;8.97;;;4.97;;
16832;SDS011;8533;48.426;10.868;2023-07-13T04:42:17;6.00;;;4.27;;
16832;SDS011;8533;48.426;10.868;2023-07-13T04:44:47;7.10;;;4.40;;
16832;SDS011;8533;48.426;10.868;2023-07-13T04:47:13;9.17;;;4.47;;
16832;SDS011;8533;48.426;10.868;2023-07-13T04:49:39;8.83;;;4.70;;
16832;SDS011;8533;48.426;10.868;2023-07-13T04:52:04;10.70;;;4.50;;
16832;SDS011;8533;48.426;10.868;2023-07-13T04:54:32;7.20;;;4.53;;
16832;SDS011;8533;48.426;10.868;2023-07-13T04:56:57;8.00;;;4.47;;
16832;SDS011;8533;48.426;10.868;2023-07-13T04:59:23;12.03;;;4.67;;
16832;SDS011;8533;48.426;10.868;2023-07-13T05:01:48;6.83;;;4.57;;
16832;SDS011;8533;48.426;10.868;2023-07-13T05:04:13;6.93;;;3.83;;
16832;SDS011;8533;48.426;10.868;2023-07-13T05:06:39;11.67;;;4.10;;
16832;SDS011;8533;48.426;10.868;2023-07-13T05:09:05;7.77;;;4.40;;
16832;SDS011;8533;48.426;10.868;2023-07-13T05:11:31;5.40;;;3.80;;
16832;SDS011;8533;48.426;10.868;2023-07-13T05:13:56;5.47;;;3.80;;
16832;SDS011;8533;48.426;10.868;2023-07-13T05:16:22;6.00;;;3.93;;
16832;SDS011;8533;48.426;10.868;2023-07-13T05:18:47;4.37;;;3.43;;
16832;SDS011;8533;48.426;10.868;2023-07-13T05:21:12;4.77;;;3.40;;
16832;SDS011;8533;48.426;10.868;2023-07-13T05:23:38;6.00;;;3.70;;
16832;SDS011;8533;48.426;10.868;2023-07-13T05:26:05;4.67;;;2.97;;
16832;SDS011;8533;48.426;10.868;2023-07-13T05:28:31;4.43;;;3.40;;
16832;SDS011;8533;48.426;10.868;2023-07-13T05:30:57;8.00;;;3.30;;
16832;SDS011;8533;48.426;10.868;2023-07-13T05:33:22;5.43;;;3.10;;
16832;SDS011;8533;48.426;10.868;2023-07-13T05:35:48;4.13;;;3.27;;
16832;SDS011;8533;48.426;10.868;2023-07-13T05:38:13;9.70;;;3.00;;
16832;SDS011;8533;48.426;10.868;2023-07-13T05:40:39;8.50;;;2.97;;
16832;SDS011;8533;48.426;10.868;2023-07-13T05:43:04;4.73;;;2.90;;
16832;SDS011;8533;48.426;10.868;2023-07-13T05:45:29;8.93;;;3.00;;
16832;SDS011;8533;48.426;10.868;2023-07-13T05:47:55;5.97;;;2.70;;
16832;SDS011;8533;48.426;10.868;2023-07-13T05:50:20;5.57;;;3.23;;
16832;SDS011;8533;48.426;10.868;2023-07-13T05:52:46;5.53;;;3.30;;
16832;SDS011;8533;48.426;10.868;2023-07-13T05:55:11;6.10;;;2.53;;
16832;SDS011;8533;48.426;10.868;2023-07-13T05:57:37;3.43;;;2.60;;
16832;SDS011;8533;48.426;10.868;2023-07-13T06:00:02;8.67;;;2.97;;
16832;SDS011;8533;48.426;10.868;2023-07-13T06:02:28;3.37;;;2.40;;
16832;SDS011;8533;48.426;10.868;2023-07-13T06:04:53;6.83;;;2.83;;
16832;SDS011;8533;48.426;10.868;2023-07-13T06:07:18;3.70;;;2.57;;
16832;SDS011;8533;48.426;10.868;2023-07-13T06:09:44;4.20;;;2.73;;
16832;SDS011;8533;48.426;10.868;2023-07-13T06:12:09;3.80;;;2.70;;
16832;SDS011;8533;48.426;10.868;2023-07-13T06:14:34;3.50;;;2.60;;
16832;SDS011;8533;48.426;10.868;2023-07-13T06:17:00;3.40;;;2.80;;
16832;SDS011;8533;48.426;10.868;2023-07-13T06:19:25;4.53;;;2.40;;
16832;SDS011;8533;48.426;10.868;2023-07-13T06:21:50;3.80;;;2.47;;
16832;SDS011;8533;48.426;10.868;2023-07-13T06:24:16;4.73;;;2.67;;
16832;SDS011;8533;48.426;10.868;2023-07-13T06:26:41;2.90;;;2.30;;
16832;SDS011;8533;48.426;10.868;2023-07-13T06:29:06;4.17;;;2.80;;
16832;SDS011;8533;48.426;10.868;2023-07-13T06:31:32;3.17;;;2.50;;
16832;SDS011;8533;48.426;10.868;2023-07-13T06:33:57;3.73;;;2.80;;
16832;SDS011;8533;48.426;10.868;2023-07-13T06:36:22;6.37;;;3.00;;
16832;SDS011;8533;48.426;10.868;2023-07-13T06:38:48;4.00;;;2.63;;
16832;SDS011;8533;48.426;10.868;2023-07-13T06:41:13;6.07;;;2.80;;
16832;SDS011;8533;48.426;10.868;2023-07-13T06:43:39;4.20;;;2.47;;
16832;SDS011;8533;48.426;10.868;2023-07-13T06:46:04;4.47;;;2.80;;
16832;SDS011;8533;48.426;10.868;2023-07-13T06:48:29;4.33;;;2.77;;
16832;SDS011;8533;48.426;10.868;2023-07-13T06:50:55;4.00;;;2.60;;
16832;SDS011;8533;48.426;10.868;2023-07-13T06:53:21;2.93;;;2.57;;
16832;SDS011;8533;48.426;10.868;2023-07-13T06:55:47;4.10;;;2.63;;
16832;SDS011;8533;48.426;10.868;2023-07-13T06:58:14;9.17;;;2.57;;
16832;SDS011;8533;48.426;10.868;2023-07-13T07:00:40;5.87;;;2.60;;
16832;SDS011;8533;48.426;10.868;2023-07-13T07:03:06;7.47;;;2.67;;
16832;SDS011;8533;48.426;10.868;2023-07-13T07:05:31;3.40;;;2.47;;
16832;SDS011;8533;48.426;10.868;2023-07-13T07:07:56;3.77;;;2.50;;
16832;SDS011;8533;48.426;10.868;2023-07-13T07:10:22;5.50;;;2.77;;
16832;SDS011;8533;48.426;10.868;2023-07-13T07:12:47;5.63;;;2.97;;
16832;SDS011;8533;48.426;10.868;2023-07-13T07:15:13;5.60;;;2.77;;
16832;SDS011;8533;48.426;10.868;2023-07-13T07:17:38;5.93;;;2.50;;
16832;SDS011;8533;48.426;10.868;2023-07-13T07:20:04;3.83;;;2.70;;
16832;SDS011;8533;48.426;10.868;2023-07-13T07:22:30;3.90;;;2.40;;
16832;SDS011;8533;48.426;10.868;2023-07-13T07:24:56;2.30;;;2.10;;
16832;SDS011;8533;48.426;10.868;2023-07-13T07:27:22;4.37;;;2.50;;
16832;SDS011;8533;48.426;10.868;2023-07-13T07:29:47;3.80;;;2.33;;
16832;SDS011;8533;48.426;10.868;2023-07-13T07:32:13;3.87;;;2.70;;
16832;SDS011;8533;48.426;10.868;2023-07-13T07:34:38;7.40;;;2.43;;
16832;SDS011;8533;48.426;10.868;2023-07-13T07:37:04;4.47;;;2.37;;
16832;SDS011;8533;48.426;10.868;2023-07-13T07:39:29;3.00;;;2.47;;
16832;SDS011;8533;48.426;10.868;2023-07-13T07:41:55;5.00;;;2.03;;
16832;SDS011;8533;48.426;10.868;2023-07-13T07:44:20;2.73;;;2.20;;
16832;SDS011;8533;48.426;10.868;2023-07-13T07:46:46;3.77;;;2.10;;
16832;SDS011;8533;48.426;10.868;2023-07-13T07:49:11;5.03;;;2.87;;
16832;SDS011;8533;48.426;10.868;2023-07-13T07:51:36;2.63;;;2.00;;
16832;SDS011;8533;48.426;10.868;2023-07-13T07:54:02;4.07;;;2.00;;
16832;SDS011;8533;48.426;10.868;2023-07-13T07:56:29;4.93;;;2.03;;
16832;SDS011;8533;48.426;10.868;2023-07-13T07:58:54;3.13;;;2.33;;
16832;SDS011;8533;48.426;10.868;2023-07-13T08:01:19;5.77;;;2.10;;
16832;SDS011;8533;48.426;10.868;2023-07-13T08:03:45;5.30;;;2.47;;
16832;SDS011;8533;48.426;10.868;2023-07-13T08:06:10;6.53;;;2.20;;
16832;SDS011;8533;48.426;10.868;2023-07-13T08:08:35;2.77;;;2.00;;
16832;SDS011;8533;48.426;10.868;2023-07-13T08:11:07;2.57;;;1.77;;
16832;SDS011;8533;48.426;10.868;2023-07-13T08:13:34;2.13;;;1.60;;
16832;SDS011;8533;48.426;10.868;2023-07-13T08:15:59;3.13;;;2.03;;
16832;SDS011;8533;48.426;10.868;2023-07-13T08:18:25;2.17;;;1.93;;
16832;SDS011;8533;48.426;10.868;2023-07-13T08:20:50;2.57;;;1.80;;
16832;SDS011;8533;48.426;10.868;2023-07-13T08:23:16;3.90;;;1.93;;
16832;SDS011;8533;48.426;10.868;2023-07-13T08:25:42;1.73;;;1.63;;
16832;SDS011;8533;48.426;10.868;2023-07-13T08:28:07;2.97;;;1.90;;
16832;SDS011;8533;48.426;10.868;2023-07-13T08:30:33;2.53;;;2.00;;
16832;SDS011;8533;48.426;10.868;2023-07-13T08:32:58;3.67;;;1.87;;
16832;SDS011;8533;48.426;10.868;2023-07-13T08:35:23;2.90;;;1.80;;
16832;SDS011;8533;48.426;10.868;2023-07-13T08:37:50;3.57;;;2.20;;
16832;SDS011;8533;48.426;10.868;2023-07-13T08:40:16;2.20;;;2.00;;
16832;SDS011;8533;48.426;10.868;2023-07-13T08:42:45;3.70;;;2.20;;
16832;SDS011;8533;48.426;10.868;2023-07-13T08:47:46;6.93;;;2.27;;
16832;SDS011;8533;48.426;10.868;2023-07-13T08:50:18;3.97;;;2.17;;
16832;SDS011;8533;48.426;10.868;2023-07-13T08:52:47;2.90;;;2.10;;
16832;SDS011;8533;48.426;10.868;2023-07-13T08:55:22;2.43;;;1.90;;
16832;SDS011;8533;48.426;10.868;2023-07-13T08:57:56;2.97;;;2.23;;
16832;SDS011;8533;48.426;10.868;2023-07-13T09:00:31;2.30;;;2.10;;
16832;SDS011;8533;48.426;10.868;2023-07-13T09:03:03;3.67;;;2.13;;
16832;SDS011;8533;48.426;10.868;2023-07-13T09:05:35;6.97;;;2.10;;
16832;SDS011;8533;48.426;10.868;2023-07-13T09:11:28;2.47;;;2.00;;
16832;SDS011;8533;48.426;10.868;2023-07-13T09:14:19;3.30;;;2.17;;
16832;SDS011;8533;48.426;10.868;2023-07-13T09:16:54;6.00;;;2.13;;
16832;SDS011;8533;48.426;10.868;2023-07-13T09:19:23;2.57;;;2.00;;
16832;SDS011;8533;48.426;10.868;2023-07-13T09:21:53;2.07;;;1.77;;
16832;SDS011;8533;48.426;10.868;2023-07-13T09:24:37;4.20;;;2.07;;
16832;SDS011;8533;48.426;10.868;2023-07-13T09:27:15;2.60;;;1.93;;
16832;SDS011;8533;48.426;10.868;2023-07-13T09:29:47;2.67;;;1.67;;
16832;SDS011;8533;48.426;10.868;2023-07-13T09:32:19;2.23;;;1.97;;
16832;SDS011;8533;48.426;10.868;2023-07-13T09:34:54;2.20;;;2.00;;
16832;SDS011;8533;48.426;10.868;2023-07-13T09:37:21;4.00;;;1.80;;
16832;SDS011;8533;48.426;10.868;2023-07-13T09:39:53;2.67;;;2.10;;
16832;SDS011;8533;48.426;10.868;2023-07-13T09:42:21;1.90;;;1.70;;
16832;SDS011;8533;48.426;10.868;2023-07-13T09:47:31;2.50;;;1.90;;
16832;SDS011;8533;48.426;10.868;2023-07-13T09:50:04;2.97;;;1.73;;
16832;SDS011;8533;48.426;10.868;2023-07-13T09:55:24;1.90;;;1.80;;
16832;SDS011;8533;48.426;10.868;2023-07-13T09:58:03;5.20;;;1.90;;
16832;SDS011;8533;48.426;10.868;2023-07-13T10:00:34;3.93;;;1.80;;
16832;SDS011;8533;48.426;10.868;2023-07-13T10:03:04;3.97;;;2.10;;
16832;SDS011;8533;48.426;10.868;2023-07-13T10:05:37;4.60;;;2.03;;
16832;SDS011;8533;48.426;10.868;2023-07-13T10:08:04;5.17;;;1.90;;
16832;SDS011;8533;48.426;10.868;2023-07-13T10:10:32;5.27;;;2.10;;
16832;SDS011;8533;48.426;10.868;2023-07-13T10:12:58;2.07;;;1.83;;
16832;SDS011;8533;48.426;10.868;2023-07-13T10:15:23;4.90;;;2.00;;
16832;SDS011;8533;48.426;10.868;2023-07-13T10:17:51;2.83;;;1.90;;
16832;SDS011;8533;48.426;10.868;2023-07-13T10:20:17;3.90;;;2.10;;
16832;SDS011;8533;48.426;10.868;2023-07-13T10:22:56;2.00;;;1.73;;
16832;SDS011;8533;48.426;10.868;2023-07-13T10:25:25;3.17;;;1.90;;
16832;SDS011;8533;48.426;10.868;2023-07-13T10:27:54;2.50;;;1.77;;
16832;SDS011;8533;48.426;10.868;2023-07-13T10:30:24;4.53;;;1.93;;
16832;SDS011;8533;48.426;10.868;2023-07-13T10:32:53;2.80;;;1.70;;
16832;SDS011;8533;48.426;10.868;2023-07-13T10:35:19;3.47;;;2.10;;
16832;SDS011;8533;48.426;10.868;2023-07-13T10:37:49;2.10;;;1.90;;
16832;SDS011;8533;48.426;10.868;2023-07-13T10:40:25;2.50;;;1.80;;
16832;SDS011;8533;48.426;10.868;2023-07-13T10:42:55;2.60;;;1.97;;
16832;SDS011;8533;48.426;10.868;2023-07-13T10:45:24;2.93;;;2.47;;
16832;SDS011;8533;48.426;10.868;2023-07-13T10:47:51;2.13;;;1.93;;
16832;SDS011;8533;48.426;10.868;2023-07-13T10:50:24;1.83;;;1.73;;
16832;SDS011;8533;48.426;10.868;2023-07-13T10:52:55;4.63;;;1.93;;
16832;SDS011;8533;48.426;10.868;2023-07-13T10:56:15;5.87;;;2.27;;
16832;SDS011;8533;48.426;10.868;2023-07-13T10:58:19;2.10;;;1.90;;
16832;SDS011;8533;48.426;10.868;2023-07-13T11:01:08;3.07;;;1.83;;
16832;SDS011;8533;48.426;10.868;2023-07-13T11:04:15;3.57;;;2.03;;
16832;SDS011;8533;48.426;10.868;2023-07-13T11:06:37;3.67;;;1.90;;
16832;SDS011;8533;48.426;10.868;2023-07-13T11:11:46;2.00;;;1.90;;
16832;SDS011;8533;48.426;10.868;2023-07-13T11:16:56;3.90;;;1.90;;
16832;SDS011;8533;48.426;10.868;2023-07-13T11:24:49;4.30;;;1.93;;
16832;SDS011;8533;48.426;10.868;2023-07-13T11:35:46;3.43;;;2.20;;
16832;SDS011;8533;48.426;10.868;2023-07-13T11:38:20;3.10;;;2.27;;
16832;SDS011;8533;48.426;10.868;2023-07-13T11:40:48;2.30;;;2.00;;
16832;SDS011;8533;48.426;10.868;2023-07-13T11:43:16;4.73;;;2.03;;
16832;SDS011;8533;48.426;10.868;2023-07-13T11:45:42;3.63;;;1.80;;
16832;SDS011;8533;48.426;10.868;2023-07-13T11:51:04;5.77;;;2.10;;
16832;SDS011;8533;48.426;10.868;2023-07-13T11:53:32;2.70;;;2.17;;
16832;SDS011;8533;48.426;10.868;2023-07-13T11:56:04;6.23;;;1.80;;
16832;SDS011;8533;48.426;10.868;2023-07-13T11:58:30;2.17;;;1.77;;
16832;SDS011;8533;48.426;10.868;2023-07-13T12:00:57;2.53;;;1.80;;
16832;SDS011;8533;48.426;10.868;2023-07-13T12:03:27;4.33;;;2.00;;
16832;SDS011;8533;48.426;10.868;2023-07-13T12:05:57;2.37;;;1.70;;
16832;SDS011;8533;48.426;10.868;2023-07-13T12:08:27;2.50;;;2.00;;
16832;SDS011;8533;48.426;10.868;2023-07-13T12:10:56;2.93;;;2.10;;
16832;SDS011;8533;48.426;10.868;2023-07-13T12:13:34;2.20;;;2.00;;
16832;SDS011;8533;48.426;10.868;2023-07-13T12:16:02;1.80;;;1.70;;
16832;SDS011;8533;48.426;10.868;2023-07-13T12:18:33;2.97;;;2.00;;
16832;SDS011;8533;48.426;10.868;2023-07-13T12:20:59;4.63;;;2.00;;
16832;SDS011;8533;48.426;10.868;2023-07-13T12:23:29;4.20;;;1.93;;
16832;SDS011;8533;48.426;10.868;2023-07-13T12:25:57;2.20;;;2.00;;
16832;SDS011;8533;48.426;10.868;2023-07-13T12:28:34;2.17;;;1.97;;
16832;SDS011;8533;48.426;10.868;2023-07-13T12:31:03;4.53;;;2.00;;
16832;SDS011;8533;48.426;10.868;2023-07-13T12:33:31;3.23;;;2.20;;
16832;SDS011;8533;48.426;10.868;2023-07-13T12:35:59;3.20;;;1.97;;
16832;SDS011;8533;48.426;10.868;2023-07-13T12:38:27;2.17;;;1.70;;
16832;SDS011;8533;48.426;10.868;2023-07-13T12:40:53;2.50;;;2.03;;
16832;SDS011;8533;48.426;10.868;2023-07-13T12:43:22;1.90;;;1.80;;
16832;SDS011;8533;48.426;10.868;2023-07-13T12:46:23;2.77;;;1.83;;
16832;SDS011;8533;48.426;10.868;2023-07-13T12:48:47;2.57;;;1.80;;
16832;SDS011;8533;48.426;10.868;2023-07-13T12:51:16;3.63;;;1.80;;
16832;SDS011;8533;48.426;10.868;2023-07-13T12:53:47;3.03;;;1.90;;
16832;SDS011;8533;48.426;10.868;2023-07-13T12:56:21;2.80;;;2.03;;
16832;SDS011;8533;48.426;10.868;2023-07-13T12:58:49;3.00;;;1.90;;
16832;SDS011;8533;48.426;10.868;2023-07-13T13:01:19;4.83;;;1.80;;
16832;SDS011;8533;48.426;10.868;2023-07-13T13:03:51;2.67;;;1.90;;
16832;SDS011;8533;48.426;10.868;2023-07-13T13:08:44;3.37;;;1.90;;
16832;SDS011;8533;48.426;10.868;2023-07-13T13:11:11;4.50;;;1.93;;
16832;SDS011;8533;48.426;10.868;2023-07-13T13:13:37;2.23;;;2.03;;
16832;SDS011;8533;48.426;10.868;2023-07-13T13:16:07;5.10;;;2.00;;
16832;SDS011;8533;48.426;10.868;2023-07-13T13:18:37;2.60;;;1.70;;
16832;SDS011;8533;48.426;10.868;2023-07-13T13:21:02;2.63;;;1.73;;
16832;SDS011;8533;48.426;10.868;2023-07-13T13:23:28;2.83;;;1.70;;
16832;SDS011;8533;48.426;10.868;2023-07-13T13:25:53;3.83;;;1.93;;
16832;SDS011;8533;48.426;10.868;2023-07-13T13:28:19;3.27;;;2.30;;
16832;SDS011;8533;48.426;10.868;2023-07-13T13:30:46;2.20;;;1.90;;
16832;SDS011;8533;48.426;10.868;2023-07-13T13:33:14;2.23;;;1.80;;
16832;SDS011;8533;48.426;10.868;2023-07-13T13:35:42;2.87;;;2.43;;
16832;SDS011;8533;48.426;10.868;2023-07-13T13:38:15;3.43;;;1.97;;
16832;SDS011;8533;48.426;10.868;2023-07-13T13:40:43;3.03;;;2.10;;
16832;SDS011;8533;48.426;10.868;2023-07-13T13:43:20;3.53;;;2.00;;
16832;SDS011;8533;48.426;10.868;2023-07-13T13:45:52;2.37;;;2.10;;
16832;SDS011;8533;48.426;10.868;2023-07-13T13:48:29;2.03;;;1.80;;
16832;SDS011;8533;48.426;10.868;2023-07-13T13:50:57;4.00;;;1.77;;
16832;SDS011;8533;48.426;10.868;2023-07-13T13:53:24;4.83;;;1.93;;
16832;SDS011;8533;48.426;10.868;2023-07-13T13:55:50;3.57;;;1.90;;
16832;SDS011;8533;48.426;10.868;2023-07-13T13:58:17;2.00;;;1.80;;
16832;SDS011;8533;48.426;10.868;2023-07-13T14:00:42;2.40;;;1.90;;
16832;SDS011;8533;48.426;10.868;2023-07-13T14:03:20;2.27;;;1.80;;
16832;SDS011;8533;48.426;10.868;2023-07-13T14:05:47;2.37;;;1.70;;
16832;SDS011;8533;48.426;10.868;2023-07-13T14:08:17;2.83;;;2.00;;
16832;SDS011;8533;48.426;10.868;2023-07-13T14:10:44;2.53;;;2.00;;
16832;SDS011;8533;48.426;10.868;2023-07-13T14:13:16;2.23;;;1.93;;
16832;SDS011;8533;48.426;10.868;2023-07-13T14:15:44;2.90;;;1.73;;
16832;SDS011;8533;48.426;10.868;2023-07-13T14:18:10;2.37;;;1.97;;
16832;SDS011;8533;48.426;10.868;2023-07-13T14:20:35;4.03;;;2.00;;
16832;SDS011;8533;48.426;10.868;2023-07-13T14:23:00;2.77;;;1.97;;
16832;SDS011;8533;48.426;10.868;2023-07-13T14:25:25;4.73;;;1.80;;
16832;SDS011;8533;48.426;10.868;2023-07-13T14:27:55;1.70;;;1.60;;
16832;SDS011;8533;48.426;10.868;2023-07-13T14:30:24;4.03;;;1.80;;
16832;SDS011;8533;48.426;10.868;2023-07-13T14:32:49;2.13;;;1.93;;
16832;SDS011;8533;48.426;10.868;2023-07-13T14:35:16;3.80;;;1.87;;
16832;SDS011;8533;48.426;10.868;2023-07-13T14:37:45;5.20;;;1.70;;
16832;SDS011;8533;48.426;10.868;2023-07-13T14:40:32;2.90;;;1.87;;
16832;SDS011;8533;48.426;10.868;2023-07-13T14:42:57;2.00;;;1.73;;
16832;SDS011;8533;48.426;10.868;2023-07-13T14:45:23;1.60;;;1.50;;
16832;SDS011;8533;48.426;10.868;2023-07-13T14:47:49;5.00;;;2.00;;
16832;SDS011;8533;48.426;10.868;2023-07-13T14:50:16;2.37;;;1.67;;
16832;SDS011;8533;48.426;10.868;2023-07-13T14:52:46;2.40;;;2.20;;
16832;SDS011;8533;48.426;10.868;2023-07-13T14:55:13;2.03;;;1.80;;
16832;SDS011;8533;48.426;10.868;2023-07-13T14:57:40;2.30;;;1.60;;
16832;SDS011;8533;48.426;10.868;2023-07-13T15:00:23;2.23;;;1.70;;
16832;SDS011;8533;48.426;10.868;2023-07-13T15:02:51;3.70;;;1.60;;
16832;SDS011;8533;48.426;10.868;2023-07-13T15:05:20;2.37;;;1.70;;
16832;SDS011;8533;48.426;10.868;2023-07-13T15:07:50;3.77;;;1.87;;
16832;SDS011;8533;48.426;10.868;2023-07-13T15:12:43;2.50;;;1.97;;
16832;SDS011;8533;48.426;10.868;2023-07-13T15:15:08;5.10;;;1.90;;
16832;SDS011;8533;48.426;10.868;2023-07-13T15:17:38;2.00;;;1.77;;
16832;SDS011;8533;48.426;10.868;2023-07-13T15:20:06;3.80;;;2.00;;
16832;SDS011;8533;48.426;10.868;2023-07-13T15:22:36;7.27;;;1.57;;
16832;SDS011;8533;48.426;10.868;2023-07-13T15:25:02;3.17;;;1.80;;
16832;SDS011;8533;48.426;10.868;2023-07-13T15:27:28;2.87;;;1.93;;
16832;SDS011;8533;48.426;10.868;2023-07-13T15:29:54;2.23;;;1.80;;